createdAt,value
2022-10-28T00:01:24.506Z,27.90
2022-10-28T00:03:54.400Z,31.30
2022-10-28T00:06:27.174Z,35.30
2022-10-28T00:08:55.215Z,27.90
2022-10-28T00:11:25.467Z,29.10
2022-10-28T00:13:55.323Z,34.50
2022-10-28T00:16:29.191Z,30.70
2022-10-28T00:18:58.913Z,31.70
2022-10-28T00:21:29.937Z,27.60
2022-10-28T00:23:58.322Z,25.10
2022-10-28T00:26:28.713Z,26.00
2022-10-28T00:29:02.481Z,19.40
2022-10-28T00:31:31.856Z,22.20
2022-10-28T00:34:02.088Z,24.20
2022-10-28T00:36:32.251Z,24.90
2022-10-28T00:39:01.269Z,21.30
2022-10-28T00:41:38.824Z,20.10
2022-10-28T00:44:58.838Z,22.00
2022-10-28T00:47:29.326Z,23.30
2022-10-28T00:50:04.977Z,19.20
2022-10-28T00:52:34.077Z,24.60
2022-10-28T00:55:03.101Z,18.70
2022-10-28T00:57:34.074Z,20.40
2022-10-28T01:02:34.423Z,22.90
2022-10-28T01:05:02.615Z,17.30
2022-10-28T01:07:30.455Z,20.10
2022-10-28T01:09:58.151Z,20.80
2022-10-28T01:12:52.294Z,23.00
2022-10-28T01:15:26.675Z,21.80
2022-10-28T01:18:04.370Z,19.50
2022-10-28T01:20:48.246Z,21.10
2022-10-28T01:23:57.860Z,24.00
2022-10-28T01:27:04.310Z,19.20
2022-10-28T01:29:46.934Z,20.90
2022-10-28T01:32:29.320Z,19.20
2022-10-28T01:35:06.480Z,20.00
2022-10-28T01:38:15.228Z,24.10
2022-10-28T01:40:55.267Z,20.20
2022-10-28T01:43:42.303Z,25.20
2022-10-28T01:46:19.402Z,19.10
2022-10-28T01:49:05.811Z,21.10
2022-10-28T01:51:54.524Z,20.60
2022-10-28T01:54:27.290Z,20.80
2022-10-28T01:56:58.044Z,18.80
2022-10-28T01:59:28.772Z,18.60
2022-10-28T02:01:57.216Z,23.30
2022-10-28T02:04:25.363Z,23.30
2022-10-28T02:06:58.258Z,21.00
2022-10-28T02:09:58.023Z,21.10
2022-10-28T02:12:35.133Z,20.10
2022-10-28T02:15:23.957Z,23.50
2022-10-28T02:18:16.636Z,26.50
2022-10-28T02:20:59.517Z,22.00
2022-10-28T02:23:46.629Z,20.20
2022-10-28T02:26:14.438Z,19.50
2022-10-28T02:29:00.905Z,16.90
2022-10-28T02:31:37.128Z,18.90
2022-10-28T02:34:12.063Z,23.30
2022-10-28T02:36:43.903Z,20.40
2022-10-28T02:39:12.024Z,31.90
2022-10-28T02:41:54.556Z,33.30
2022-10-28T02:44:28.901Z,26.10
2022-10-28T02:47:00.598Z,24.30
2022-10-28T02:49:31.908Z,21.90
2022-10-28T02:54:38.226Z,18.90
2022-10-28T02:57:12.095Z,23.30
2022-10-28T02:59:40.862Z,34.00
2022-10-28T03:02:09.098Z,33.30
2022-10-28T03:04:36.926Z,34.50
2022-10-28T03:07:04.702Z,47.80
2022-10-28T03:09:32.948Z,78.30
2022-10-28T03:12:00.706Z,95.40
2022-10-28T03:14:28.441Z,93.90
2022-10-28T03:16:56.221Z,85.60
2022-10-28T03:19:24.998Z,76.40
2022-10-28T03:21:52.734Z,76.00
2022-10-28T03:24:20.639Z,65.00
2022-10-28T03:26:48.544Z,63.40
2022-10-28T03:29:16.262Z,49.50
2022-10-28T03:31:44.115Z,50.50
2022-10-28T03:34:11.871Z,59.50
2022-10-28T03:36:39.684Z,53.60
2022-10-28T03:39:07.552Z,54.70
2022-10-28T03:41:35.362Z,51.80
2022-10-28T03:44:03.432Z,40.40
2022-10-28T03:46:35.092Z,33.70
2022-10-28T03:49:04.149Z,33.70
2022-10-28T03:51:31.884Z,46.10
2022-10-28T03:53:59.707Z,69.80
2022-10-28T03:56:27.483Z,80.60
2022-10-28T03:58:55.267Z,77.20
2022-10-28T04:01:23.110Z,65.00
2022-10-28T04:03:51.035Z,48.30
2022-10-28T04:06:18.825Z,36.10
2022-10-28T04:08:46.643Z,28.40
2022-10-28T04:11:14.393Z,24.80
2022-10-28T04:13:42.278Z,29.40
2022-10-28T04:16:10.180Z,27.50
2022-10-28T04:18:38.014Z,18.30
2022-10-28T04:21:06.042Z,28.00
2022-10-28T04:23:34.136Z,23.50
2022-10-28T04:26:01.838Z,24.30
2022-10-28T04:28:29.651Z,23.50
2022-10-28T04:30:57.448Z,24.40
2022-10-28T04:33:25.223Z,19.40
2022-10-28T04:35:53.020Z,17.00
2022-10-28T04:38:20.999Z,27.10
2022-10-28T04:40:49.272Z,18.00
2022-10-28T04:43:17.280Z,16.40
2022-10-28T04:45:46.964Z,20.20
2022-10-28T04:48:15.111Z,17.60
2022-10-28T04:50:43.405Z,18.90
2022-10-28T04:53:12.634Z,18.60
2022-10-28T04:55:40.550Z,18.80
2022-10-28T04:58:09.736Z,15.70
2022-10-28T05:00:37.508Z,23.80
2022-10-28T05:03:05.453Z,20.50
2022-10-28T05:05:33.731Z,20.20
2022-10-28T05:08:01.983Z,21.30
2022-10-28T05:10:30.699Z,16.50
2022-10-28T05:12:58.599Z,21.10
2022-10-28T05:15:26.676Z,18.60
2022-10-28T05:17:55.164Z,20.10
2022-10-28T05:20:23.540Z,21.30
2022-10-28T05:22:54.910Z,17.80
2022-10-28T05:25:23.865Z,19.50
2022-10-28T05:27:52.033Z,20.70
2022-10-28T05:30:19.946Z,22.60
2022-10-28T05:32:49.324Z,20.00
2022-10-28T05:35:19.476Z,29.40
2022-10-28T05:37:47.326Z,25.10
2022-10-28T05:40:15.245Z,35.50
2022-10-28T05:42:43.517Z,42.00
2022-10-28T05:45:12.529Z,36.70
2022-10-28T05:47:48.428Z,27.70
2022-10-28T05:50:18.986Z,32.60
2022-10-28T05:52:48.476Z,37.80
2022-10-28T05:55:19.450Z,41.30
2022-10-28T05:57:48.575Z,69.10
2022-10-28T06:00:19.155Z,68.70
2022-10-28T06:02:46.992Z,50.60
2022-10-28T06:05:15.274Z,38.90
2022-10-28T06:07:42.995Z,47.00
2022-10-28T06:10:11.746Z,36.80
2022-10-28T06:12:38.778Z,43.10
2022-10-28T06:15:07.254Z,44.50
2022-10-28T06:17:35.086Z,39.30
2022-10-28T06:20:04.220Z,47.50
2022-10-28T06:22:32.156Z,54.60
2022-10-28T06:25:00.014Z,49.20
2022-10-28T06:27:29.620Z,45.30
2022-10-28T06:29:57.295Z,45.20
2022-10-28T06:32:25.162Z,34.50
2022-10-28T06:34:52.964Z,34.50
2022-10-28T06:37:20.646Z,39.60
2022-10-28T06:39:51.321Z,48.70
2022-10-28T06:42:19.332Z,42.90
2022-10-28T06:44:48.070Z,37.30
2022-10-28T06:47:17.997Z,47.00
2022-10-28T06:49:45.882Z,41.00
2022-10-28T06:52:13.729Z,32.80
2022-10-28T06:54:41.592Z,40.20
2022-10-28T06:57:10.592Z,33.30
2022-10-28T06:59:38.521Z,35.90
2022-10-28T07:02:12.184Z,37.40
2022-10-28T07:07:07.980Z,30.80
2022-10-28T07:09:39.512Z,28.60
2022-10-28T07:12:07.793Z,22.70
2022-10-28T07:14:35.679Z,25.10
2022-10-28T07:17:04.006Z,25.30
2022-10-28T07:19:32.024Z,23.50
2022-10-28T07:21:59.954Z,18.50
2022-10-28T07:27:00.590Z,19.70
2022-10-28T07:29:28.394Z,16.80
2022-10-28T07:31:56.900Z,15.10
2022-10-28T07:34:27.140Z,21.40
2022-10-28T07:39:23.606Z,17.70
2022-10-28T07:41:51.617Z,17.00
2022-10-28T07:44:19.356Z,17.70
2022-10-28T07:46:47.147Z,22.40
2022-10-28T07:49:14.965Z,27.90
2022-10-28T07:51:43.185Z,30.10
2022-10-28T07:54:11.054Z,25.90
2022-10-28T07:56:38.838Z,21.00
2022-10-28T07:59:06.675Z,18.10
2022-10-28T08:01:35.151Z,22.40
2022-10-28T08:04:03.087Z,21.10
2022-10-28T08:06:30.882Z,16.20
2022-10-28T08:08:58.590Z,21.30
2022-10-28T08:11:26.394Z,19.50
2022-10-28T08:13:55.923Z,17.20
2022-10-28T08:16:24.107Z,14.10
2022-10-28T08:18:53.222Z,19.60
2022-10-28T08:21:21.382Z,12.00
2022-10-28T08:23:49.770Z,26.10
2022-10-28T08:26:17.785Z,19.50
2022-10-28T08:28:45.782Z,15.60
2022-10-28T08:31:13.612Z,15.90
2022-10-28T08:33:46.993Z,25.80
2022-10-28T08:36:16.766Z,17.10
2022-10-28T08:38:48.140Z,13.80
2022-10-28T08:41:44.968Z,13.70
2022-10-28T08:44:34.792Z,14.50
2022-10-28T08:47:14.633Z,16.80
2022-10-28T08:49:47.103Z,20.70
2022-10-28T08:52:52.962Z,18.50
2022-10-28T08:55:25.304Z,13.10
2022-10-28T08:57:57.701Z,15.00
2022-10-28T09:00:33.426Z,14.80
2022-10-28T09:03:17.454Z,18.60
2022-10-28T09:05:51.110Z,17.40
2022-10-28T09:08:30.945Z,16.60
2022-10-28T09:11:11.015Z,17.90
2022-10-28T09:13:57.198Z,15.80
2022-10-28T09:16:35.781Z,16.90
2022-10-28T09:19:42.191Z,16.80
2022-10-28T09:22:20.911Z,20.90
2022-10-28T09:24:53.582Z,21.30
2022-10-28T09:28:18.827Z,15.60
2022-10-28T09:31:06.911Z,19.70
2022-10-28T09:33:35.019Z,18.90
2022-10-28T09:36:12.953Z,27.00
2022-10-28T09:38:41.853Z,23.00
2022-10-28T09:41:25.798Z,19.10
2022-10-28T09:43:57.281Z,21.40
2022-10-28T09:46:33.221Z,19.50
2022-10-28T09:49:11.556Z,19.50
2022-10-28T09:51:52.777Z,14.70
2022-10-28T09:54:29.898Z,22.70
2022-10-28T09:56:57.855Z,17.10
2022-10-28T09:59:28.573Z,18.90
2022-10-28T10:01:56.764Z,15.30
2022-10-28T10:04:28.118Z,17.90
2022-10-28T10:07:02.746Z,14.70
2022-10-28T10:09:57.869Z,17.30
2022-10-28T10:12:27.191Z,21.00
2022-10-28T10:14:58.615Z,20.00
2022-10-28T10:17:39.993Z,15.90
2022-10-28T10:20:11.261Z,26.40
2022-10-28T10:22:41.642Z,19.00
2022-10-28T10:25:31.008Z,17.40
2022-10-28T10:28:06.182Z,17.20
2022-10-28T10:30:48.907Z,18.40
2022-10-28T10:33:23.714Z,19.10
2022-10-28T10:36:00.566Z,24.90
2022-10-28T10:38:29.652Z,27.70
2022-10-28T10:40:58.192Z,23.20
2022-10-28T10:43:34.046Z,21.30
2022-10-28T10:46:14.962Z,21.40
2022-10-28T10:48:43.450Z,24.10
2022-10-28T10:51:26.049Z,19.50
2022-10-28T10:54:00.830Z,21.60
2022-10-28T10:56:31.425Z,25.80
2022-10-28T10:59:02.809Z,16.60
2022-10-28T11:01:37.138Z,17.40
2022-10-28T11:04:07.635Z,12.20
2022-10-28T11:06:41.430Z,15.90
2022-10-28T11:09:27.613Z,15.50
2022-10-28T11:11:56.391Z,16.40
2022-10-28T11:14:29.338Z,16.90
2022-10-28T11:16:59.861Z,13.70
2022-10-28T11:19:31.771Z,12.60
2022-10-28T11:22:21.024Z,15.60
2022-10-28T11:25:03.993Z,18.40
2022-10-28T11:27:55.327Z,12.40
2022-10-28T11:30:50.579Z,19.50
2022-10-28T11:33:30.177Z,16.70
2022-10-28T11:36:19.999Z,14.70
2022-10-28T11:39:06.668Z,17.00
2022-10-28T11:41:59.590Z,18.10
2022-10-28T11:45:03.531Z,17.20
2022-10-28T11:47:37.240Z,13.40
2022-10-28T11:50:10.810Z,17.10
2022-10-28T11:53:00.376Z,16.10
2022-10-28T11:55:37.409Z,17.20
2022-10-28T11:58:23.072Z,15.10
2022-10-28T12:01:00.055Z,15.20
2022-10-28T12:03:39.082Z,16.70
2022-10-28T12:06:37.764Z,15.20
2022-10-28T12:09:50.204Z,13.00
2022-10-28T12:12:41.342Z,12.50
2022-10-28T12:15:24.587Z,14.50
2022-10-28T12:17:55.799Z,14.40
2022-10-28T12:20:30.013Z,13.70
2022-10-28T12:23:02.474Z,14.00
2022-10-28T12:25:35.845Z,16.70
2022-10-28T12:28:11.699Z,15.40
2022-10-28T12:30:43.484Z,17.20
2022-10-28T12:33:14.150Z,18.80
2022-10-28T12:36:06.719Z,16.20
2022-10-28T12:38:43.192Z,19.60
2022-10-28T12:41:21.291Z,19.10
2022-10-28T12:43:54.223Z,19.60
2022-10-28T12:46:40.885Z,18.50
2022-10-28T12:49:31.984Z,19.50
2022-10-28T12:52:06.179Z,19.00
2022-10-28T12:54:53.575Z,14.90
2022-10-28T12:57:25.350Z,22.70
2022-10-28T13:00:22.814Z,20.60
2022-10-28T13:03:01.850Z,18.40
2022-10-28T13:05:54.089Z,22.80
2022-10-28T13:08:45.113Z,26.10
2022-10-28T13:11:47.554Z,19.30
2022-10-28T13:14:24.462Z,17.40
2022-10-28T13:16:54.965Z,23.20
2022-10-28T13:19:37.730Z,19.60
2022-10-28T13:22:11.520Z,22.40
2022-10-28T13:25:21.470Z,20.70
2022-10-28T13:27:58.838Z,24.10
2022-10-28T13:30:28.264Z,21.80
2022-10-28T13:33:08.720Z,24.70
2022-10-28T13:35:37.112Z,16.40
2022-10-28T13:38:10.959Z,19.60
2022-10-28T13:40:38.606Z,20.00
2022-10-28T13:43:20.953Z,20.30
2022-10-28T13:45:55.206Z,22.30
2022-10-28T13:48:29.141Z,19.80
2022-10-28T13:51:09.432Z,22.30
2022-10-28T13:53:38.668Z,19.20
2022-10-28T13:56:27.805Z,26.50
2022-10-28T13:58:59.838Z,18.90
2022-10-28T14:02:01.569Z,24.80
2022-10-28T14:04:38.462Z,22.00
2022-10-28T14:07:12.729Z,23.40
2022-10-28T14:09:41.458Z,24.60
2022-10-28T14:12:17.390Z,22.40
2022-10-28T14:14:52.493Z,24.50
2022-10-28T14:17:36.921Z,21.10
2022-10-28T14:20:19.916Z,19.90
2022-10-28T14:22:48.210Z,37.30
2022-10-28T14:25:40.476Z,29.40
2022-10-28T14:28:27.163Z,23.80
2022-10-28T14:31:33.062Z,23.50
2022-10-28T14:34:00.829Z,25.20
2022-10-28T14:36:48.956Z,24.90
2022-10-28T14:39:59.220Z,30.10
2022-10-28T14:42:34.772Z,29.30
2022-10-28T14:45:30.599Z,34.20
2022-10-28T14:48:27.588Z,28.50
2022-10-28T14:50:57.364Z,28.00
2022-10-28T14:53:30.435Z,32.70
2022-10-28T14:56:10.847Z,28.80
2022-10-28T14:58:43.868Z,43.70
2022-10-28T15:01:18.003Z,36.10
2022-10-28T15:03:48.623Z,28.60
2022-10-28T15:06:39.444Z,34.30
2022-10-28T15:12:01.727Z,30.20
2022-10-28T15:14:40.607Z,29.20
2022-10-28T15:17:13.202Z,29.10
2022-10-28T15:19:41.910Z,34.70
2022-10-28T15:22:28.255Z,37.60
2022-10-28T15:25:04.460Z,33.60
2022-10-28T15:27:36.472Z,35.90
2022-10-28T15:30:28.090Z,30.00
2022-10-28T15:33:32.086Z,33.70
2022-10-28T15:36:17.560Z,37.80
2022-10-28T15:38:49.784Z,34.80
2022-10-28T15:41:26.434Z,41.30
2022-10-28T15:44:02.804Z,37.80
2022-10-28T15:46:33.543Z,34.00
2022-10-28T15:51:29.946Z,49.30
2022-10-28T15:54:11.840Z,43.30
2022-10-28T15:56:57.845Z,41.20
2022-10-28T15:59:26.698Z,39.30
2022-10-28T16:01:59.271Z,47.90
2022-10-28T16:04:39.494Z,52.90
2022-10-28T16:07:08.914Z,53.40
2022-10-28T16:09:48.825Z,116.60
2022-10-28T16:12:21.040Z,70.20
2022-10-28T16:14:56.293Z,60.20
2022-10-28T16:17:36.348Z,49.60
2022-10-28T16:20:15.455Z,47.10
2022-10-28T16:22:46.774Z,44.90
2022-10-28T16:25:20.678Z,51.50
2022-10-28T16:27:50.093Z,49.20
2022-10-28T16:30:18.232Z,57.60
2022-10-28T16:32:48.871Z,54.70
2022-10-28T16:35:21.951Z,43.30
2022-10-28T16:37:55.140Z,63.70
2022-10-28T16:43:17.360Z,91.50
2022-10-28T16:45:45.676Z,68.10
2022-10-28T16:48:16.200Z,86.50
2022-10-28T16:50:49.272Z,77.10
2022-10-28T16:53:18.072Z,103.60
2022-10-28T16:55:46.295Z,124.80
2022-10-28T16:58:14.160Z,111.90
2022-10-28T17:00:43.008Z,94.10
2022-10-28T17:03:17.053Z,83.10
2022-10-28T17:05:45.318Z,105.90
2022-10-28T17:08:13.611Z,62.20
2022-10-28T17:10:42.708Z,79.90
2022-10-28T17:13:14.886Z,125.20
2022-10-28T17:15:43.540Z,103.20
2022-10-28T17:18:14.979Z,112.50
2022-10-28T17:20:42.800Z,145.30
2022-10-28T17:23:10.673Z,106.90
2022-10-28T17:25:38.484Z,125.60
2022-10-28T17:28:06.410Z,91.90
2022-10-28T17:30:34.400Z,77.10
2022-10-28T17:33:02.553Z,85.70
2022-10-28T17:35:30.351Z,99.60
2022-10-28T17:37:58.664Z,77.50
2022-10-28T17:40:26.502Z,76.40
2022-10-28T17:42:58.279Z,104.50
2022-10-28T17:45:26.305Z,88.30
2022-10-28T17:47:54.196Z,89.70
2022-10-28T17:50:22.078Z,143.40
2022-10-28T17:52:49.957Z,75.10
2022-10-28T17:55:17.681Z,99.00
2022-10-28T17:57:45.646Z,94.20
2022-10-28T18:00:14.159Z,89.80
2022-10-28T18:02:42.073Z,85.90
2022-10-28T18:05:10.125Z,87.80
2022-10-28T18:07:37.962Z,70.20
2022-10-28T18:10:06.516Z,94.80
2022-10-28T18:12:34.249Z,87.40
2022-10-28T18:15:02.106Z,82.70
2022-10-28T18:17:29.903Z,84.40
2022-10-28T18:20:01.511Z,97.50
2022-10-28T18:22:29.283Z,89.20
2022-10-28T18:24:57.077Z,74.50
2022-10-28T18:27:24.882Z,116.80
2022-10-28T18:29:52.737Z,86.00
2022-10-28T18:32:20.646Z,76.70
2022-10-28T18:34:48.578Z,77.40
2022-10-28T18:37:16.357Z,83.20
2022-10-28T18:39:44.374Z,53.50
2022-10-28T18:42:13.092Z,95.70
2022-10-28T18:44:41.820Z,55.00
2022-10-28T18:47:09.505Z,64.00
2022-10-28T18:49:37.321Z,63.10
2022-10-28T18:52:05.082Z,65.80
2022-10-28T18:54:34.189Z,72.30
2022-10-28T18:57:02.033Z,67.60
2022-10-28T18:59:29.758Z,53.70
2022-10-28T19:01:57.896Z,98.40
2022-10-28T19:04:25.798Z,143.50
2022-10-28T19:06:53.731Z,99.40
2022-10-28T19:09:21.620Z,92.40
2022-10-28T19:11:49.340Z,93.00
2022-10-28T19:14:17.127Z,104.00
2022-10-28T19:16:44.989Z,111.00
2022-10-28T19:19:12.723Z,65.90
2022-10-28T19:21:40.543Z,77.70
2022-10-28T19:24:08.645Z,86.10
2022-10-28T19:26:36.566Z,64.60
2022-10-28T19:29:04.740Z,74.40
2022-10-28T19:31:36.117Z,66.70
2022-10-28T19:34:03.871Z,104.20
2022-10-28T19:36:31.671Z,71.20
2022-10-28T19:38:59.642Z,65.30
2022-10-28T19:41:29.226Z,68.30
2022-10-28T19:43:59.379Z,56.00
2022-10-28T19:46:30.961Z,50.00
2022-10-28T19:49:00.648Z,53.40
2022-10-28T19:51:31.459Z,46.90
2022-10-28T19:54:01.314Z,63.50
2022-10-28T19:56:31.671Z,58.50
2022-10-28T19:59:02.275Z,42.40
2022-10-28T20:01:35.885Z,54.20
2022-10-28T20:04:04.462Z,65.40
2022-10-28T20:06:35.049Z,63.80
2022-10-28T20:09:03.590Z,42.80
2022-10-28T20:11:33.969Z,57.40
2022-10-28T20:14:04.525Z,103.70
2022-10-28T20:19:01.036Z,87.90
2022-10-28T20:21:30.940Z,61.30
2022-10-28T20:23:58.887Z,44.90
2022-10-28T20:26:32.014Z,101.40
2022-10-28T20:29:02.915Z,52.90
2022-10-28T20:31:32.203Z,94.50
2022-10-28T20:34:03.883Z,67.30
2022-10-28T20:36:40.147Z,51.90
2022-10-28T20:39:12.997Z,59.00
2022-10-28T20:41:41.944Z,42.40
2022-10-28T20:44:09.932Z,47.10
2022-10-28T20:46:38.727Z,52.90
2022-10-28T20:49:08.711Z,71.00
2022-10-28T20:51:37.052Z,77.70
2022-10-28T20:54:05.150Z,60.80
2022-10-28T20:56:36.246Z,49.70
2022-10-28T20:59:05.009Z,103.10
2022-10-28T21:01:41.022Z,102.40
2022-10-28T21:04:10.852Z,87.60
2022-10-28T21:06:40.005Z,115.70
2022-10-28T21:09:08.886Z,85.40
2022-10-28T21:11:36.709Z,70.70
2022-10-28T21:14:04.404Z,67.70
2022-10-28T21:16:33.330Z,102.50
2022-10-28T21:19:01.325Z,75.70
2022-10-28T21:21:30.414Z,150.10
2022-10-28T21:24:00.719Z,123.90
2022-10-28T21:26:28.698Z,140.20
2022-10-28T21:28:56.594Z,97.90
2022-10-28T21:31:25.079Z,94.80
2022-10-28T21:33:53.476Z,91.40
2022-10-28T21:36:22.312Z,64.50
2022-10-28T21:38:55.429Z,70.90
2022-10-28T21:41:24.300Z,90.10
2022-10-28T21:43:54.335Z,106.20
2022-10-28T21:46:23.618Z,108.40
2022-10-28T21:48:52.734Z,72.10
2022-10-28T21:51:20.652Z,80.20
2022-10-28T21:53:48.400Z,77.80
2022-10-28T21:56:19.321Z,95.50
2022-10-28T21:58:49.371Z,100.90
2022-10-28T22:01:22.372Z,89.60
2022-10-28T22:03:51.903Z,60.90
2022-10-28T22:06:19.704Z,85.70
2022-10-28T22:08:47.660Z,72.00
2022-10-28T22:11:18.019Z,124.00
2022-10-28T22:13:46.178Z,75.00
2022-10-28T22:16:16.186Z,106.60
2022-10-28T22:18:44.597Z,75.00
2022-10-28T22:21:15.447Z,81.40
2022-10-28T22:23:43.707Z,82.90
2022-10-28T22:26:14.789Z,64.20
2022-10-28T22:28:43.033Z,56.80
2022-10-28T22:31:15.028Z,59.40
2022-10-28T22:33:43.419Z,82.20
2022-10-28T22:36:13.733Z,98.00
2022-10-28T22:38:42.212Z,62.70
2022-10-28T22:41:21.801Z,91.70
2022-10-28T22:43:54.668Z,67.50
2022-10-28T22:46:24.361Z,79.90
2022-10-28T22:48:53.231Z,61.50
2022-10-28T22:51:21.682Z,111.70
2022-10-28T22:53:50.209Z,75.00
2022-10-28T22:56:23.878Z,104.70
2022-10-28T22:59:00.303Z,86.30
2022-10-28T23:01:29.106Z,64.50
2022-10-28T23:03:57.328Z,74.40
2022-10-28T23:06:26.632Z,96.80
2022-10-28T23:08:54.871Z,73.20
2022-10-28T23:11:23.129Z,67.10
2022-10-28T23:13:53.194Z,56.80
2022-10-28T23:16:22.194Z,79.40
2022-10-28T23:18:52.709Z,54.00
2022-10-28T23:21:23.073Z,81.10
2022-10-28T23:23:55.722Z,73.00
2022-10-28T23:26:24.312Z,63.40
2022-10-28T23:28:53.938Z,101.50
2022-10-28T23:31:22.802Z,104.90
2022-10-28T23:33:50.907Z,66.60
2022-10-28T23:36:18.715Z,112.70
2022-10-28T23:38:46.632Z,61.00
2022-10-28T23:41:18.450Z,95.60
2022-10-28T23:43:48.766Z,95.90
2022-10-28T23:46:17.356Z,106.80
2022-10-28T23:48:45.297Z,278.00
2022-10-28T23:51:13.063Z,267.70
2022-10-28T23:53:40.886Z,180.10
2022-10-28T23:56:08.942Z,100.70
2022-10-28T23:58:36.745Z,95.50
